createdAt,value
2018-02-10T00:02:02.795Z,145.57
2018-02-10T00:04:28.984Z,123.10
2018-02-10T00:06:55.167Z,102.77
2018-02-10T00:09:21.391Z,125.87
2018-02-10T00:11:47.580Z,121.30
2018-02-10T00:14:13.818Z,108.00
2018-02-10T00:16:40.008Z,116.20
2018-02-10T00:19:06.960Z,129.27
2018-02-10T00:21:33.895Z,131.80
2018-02-10T00:24:00.105Z,115.67
2018-02-10T00:26:26.300Z,125.73
2018-02-10T00:28:52.514Z,133.53
2018-02-10T00:31:18.771Z,110.63
2018-02-10T00:33:44.989Z,123.07
2018-02-10T00:36:11.240Z,139.53
2018-02-10T00:38:37.455Z,134.20
2018-02-10T00:41:03.640Z,131.00
2018-02-10T00:43:30.596Z,118.60
2018-02-10T00:45:56.803Z,144.30
2018-02-10T00:48:22.983Z,136.27
2018-02-10T00:50:49.184Z,117.13
2018-02-10T00:53:15.411Z,128.97
2018-02-10T00:55:41.619Z,131.13
2018-02-10T00:58:08.544Z,140.60
2018-02-10T01:00:34.756Z,143.97
2018-02-10T01:03:00.933Z,146.87
2018-02-10T01:05:27.887Z,123.07
2018-02-10T01:07:54.080Z,135.13
2018-02-10T01:10:21.032Z,115.97
2018-02-10T01:12:47.224Z,147.60
2018-02-10T01:15:13.416Z,127.43
2018-02-10T01:17:40.368Z,144.97
2018-02-10T01:20:06.556Z,151.37
2018-02-10T01:22:32.764Z,142.90
2018-02-10T01:24:58.951Z,151.23
2018-02-10T01:27:25.160Z,153.33
2018-02-10T01:29:51.391Z,122.13
2018-02-10T01:32:18.351Z,114.10
2018-02-10T01:34:45.284Z,125.93
2018-02-10T01:37:12.208Z,131.53
2018-02-10T01:39:38.417Z,167.23
2018-02-10T01:42:04.624Z,130.43
2018-02-10T01:44:30.895Z,129.37
2018-02-10T01:46:57.088Z,128.87
2018-02-10T01:49:23.296Z,106.87
2018-02-10T01:51:49.507Z,116.97
2018-02-10T01:54:16.459Z,127.83
2018-02-10T01:56:43.418Z,112.47
2018-02-10T01:59:09.629Z,124.57
2018-02-10T02:01:36.591Z,158.07
2018-02-10T02:04:02.861Z,134.43
2018-02-10T02:06:29.049Z,143.43
2018-02-10T02:08:55.319Z,130.30
2018-02-10T02:11:21.550Z,146.33
2018-02-10T02:13:48.189Z,128.37
2018-02-10T02:16:14.930Z,147.77
2018-02-10T02:18:42.284Z,157.87
2018-02-10T02:21:09.741Z,147.80
2018-02-10T02:23:36.482Z,147.90
2018-02-10T02:26:02.712Z,135.53
2018-02-10T02:28:28.891Z,118.63
2018-02-10T02:30:55.849Z,125.43
2018-02-10T02:33:22.032Z,143.53
2018-02-10T02:35:48.244Z,128.57
2018-02-10T02:38:14.521Z,134.50
2018-02-10T02:40:48.395Z,131.93
2018-02-10T02:43:14.603Z,125.90
2018-02-10T02:45:40.808Z,138.20
2018-02-10T02:48:06.993Z,113.47
2018-02-10T02:50:33.199Z,125.03
2018-02-10T02:52:59.393Z,132.33
2018-02-10T02:55:25.653Z,118.20
2018-02-10T02:57:51.855Z,120.93
2018-02-10T03:00:18.056Z,131.33
2018-02-10T03:02:45.012Z,103.60
2018-02-10T03:05:11.240Z,130.13
2018-02-10T03:07:37.452Z,102.13
2018-02-10T03:10:04.375Z,119.47
2018-02-10T03:12:31.713Z,106.40
2018-02-10T03:14:57.924Z,93.63
2018-02-10T03:17:24.140Z,84.20
2018-02-10T03:19:50.327Z,82.97
2018-02-10T03:22:16.534Z,107.87
2018-02-10T03:24:42.722Z,112.33
2018-02-10T03:27:08.931Z,104.23
2018-02-10T03:29:35.859Z,108.63
2018-02-10T03:32:02.068Z,84.43
2018-02-10T03:34:28.256Z,113.30
2018-02-10T03:36:54.460Z,123.73
2018-02-10T03:39:20.671Z,93.27
2018-02-10T03:41:47.019Z,101.77
2018-02-10T03:44:14.054Z,110.70
2018-02-10T03:46:40.272Z,115.70
2018-02-10T03:49:06.460Z,97.37
2018-02-10T03:51:32.649Z,115.63
2018-02-10T03:53:59.603Z,105.53
2018-02-10T03:56:26.534Z,103.43
2018-02-10T03:58:53.484Z,72.83
2018-02-10T04:01:20.408Z,75.10
2018-02-10T04:03:46.615Z,99.90
2018-02-10T04:06:12.799Z,91.30
2018-02-10T04:08:39.747Z,92.67
2018-02-10T04:11:06.676Z,105.57
2018-02-10T04:13:33.632Z,119.07
2018-02-10T04:16:00.557Z,107.30
2018-02-10T04:18:26.776Z,71.80
2018-02-10T04:20:52.963Z,86.17
2018-02-10T04:23:19.167Z,104.27
2018-02-10T04:25:46.115Z,90.13
2018-02-10T04:28:12.308Z,86.97
2018-02-10T04:30:38.524Z,110.10
2018-02-10T04:33:04.707Z,89.40
2018-02-10T04:35:30.916Z,107.03
2018-02-10T04:37:57.839Z,95.63
2018-02-10T04:40:24.096Z,90.13
2018-02-10T04:42:51.039Z,109.63
2018-02-10T04:45:17.997Z,105.30
2018-02-10T04:47:44.180Z,94.03
2018-02-10T04:50:10.387Z,98.13
2018-02-10T04:52:36.603Z,73.83
2018-02-10T04:55:02.835Z,89.70
2018-02-10T04:57:29.023Z,84.87
2018-02-10T04:59:56.008Z,102.10
2018-02-10T05:02:22.191Z,98.27
2018-02-10T05:04:48.380Z,102.33
2018-02-10T05:07:14.592Z,103.47
2018-02-10T05:09:40.796Z,82.80
2018-02-10T05:12:07.742Z,100.70
2018-02-10T05:14:34.671Z,91.17
2018-02-10T05:17:01.619Z,96.83
2018-02-10T05:19:28.548Z,86.20
2018-02-10T05:21:54.764Z,112.73
2018-02-10T05:24:20.956Z,101.03
2018-02-10T05:26:47.164Z,78.17
2018-02-10T05:29:13.359Z,90.67
2018-02-10T05:31:39.568Z,84.47
2018-02-10T05:34:05.755Z,105.43
2018-02-10T05:36:31.967Z,74.57
2018-02-10T05:38:58.912Z,84.13
2018-02-10T05:41:25.871Z,103.77
2018-02-10T05:43:52.823Z,97.50
2018-02-10T05:46:19.020Z,63.17
2018-02-10T05:48:45.252Z,108.50
2018-02-10T05:51:11.441Z,83.00
2018-02-10T05:53:37.631Z,101.23
2018-02-10T05:56:04.579Z,88.90
2018-02-10T05:58:31.504Z,80.37
2018-02-10T06:00:57.711Z,91.20
2018-02-10T06:03:23.895Z,115.87
2018-02-10T06:05:50.112Z,74.90
2018-02-10T06:08:16.348Z,95.13
2018-02-10T06:10:42.561Z,94.03
2018-02-10T06:13:09.496Z,85.80
2018-02-10T06:15:36.509Z,123.47
2018-02-10T06:18:02.691Z,104.57
2018-02-10T06:20:28.880Z,77.17
2018-02-10T06:22:55.091Z,100.37
2018-02-10T06:25:21.268Z,89.77
2018-02-10T06:27:48.220Z,99.17
2018-02-10T06:30:15.182Z,119.03
2018-02-10T06:32:41.405Z,104.60
2018-02-10T06:35:14.599Z,105.70
2018-02-10T06:37:40.809Z,90.47
2018-02-10T06:40:07.748Z,88.10
2018-02-10T06:42:34.715Z,119.30
2018-02-10T06:45:00.908Z,102.87
2018-02-10T06:47:27.152Z,96.80
2018-02-10T06:49:54.083Z,87.53
2018-02-10T06:52:21.069Z,96.33
2018-02-10T06:54:47.291Z,89.27
2018-02-10T06:57:14.227Z,83.40
2018-02-10T06:59:41.175Z,80.13
2018-02-10T07:02:08.512Z,93.57
2018-02-10T07:04:35.468Z,90.70
2018-02-10T07:07:02.412Z,95.43
2018-02-10T07:09:29.368Z,94.57
2018-02-10T07:11:56.312Z,83.87
2018-02-10T07:14:23.264Z,107.00
2018-02-10T07:16:49.451Z,78.47
2018-02-10T07:19:15.664Z,89.77
2018-02-10T07:21:41.849Z,89.20
2018-02-10T07:24:08.069Z,89.30
2018-02-10T07:26:35.004Z,90.20
2018-02-10T07:29:01.959Z,84.13
2018-02-10T07:31:28.891Z,103.93
2018-02-10T07:33:55.149Z,100.40
2018-02-10T07:36:22.075Z,86.67
2018-02-10T07:38:49.016Z,83.23
2018-02-10T07:41:15.211Z,72.33
2018-02-10T07:43:41.431Z,84.87
2018-02-10T07:46:07.611Z,64.27
2018-02-10T07:48:34.577Z,73.43
2018-02-10T07:51:00.763Z,77.47
2018-02-10T07:53:26.952Z,61.10
2018-02-10T07:55:53.212Z,83.93
2018-02-10T07:58:19.404Z,60.77
2018-02-10T08:00:45.619Z,83.97
2018-02-10T08:03:11.804Z,68.57
2018-02-10T08:05:38.016Z,69.10
2018-02-10T08:08:04.208Z,85.20
2018-02-10T08:10:30.420Z,85.60
2018-02-10T08:12:57.352Z,74.33
2018-02-10T08:15:24.304Z,74.83
2018-02-10T08:17:51.232Z,72.90
2018-02-10T08:20:17.456Z,76.33
2018-02-10T08:22:43.651Z,72.93
2018-02-10T08:25:09.878Z,71.63
2018-02-10T08:27:36.093Z,70.93
2018-02-10T08:30:02.300Z,65.63
2018-02-10T08:32:29.282Z,76.50
2018-02-10T08:34:55.471Z,72.90
2018-02-10T08:37:22.415Z,76.80
2018-02-10T08:39:49.344Z,79.47
2018-02-10T08:42:15.988Z,72.50
2018-02-10T08:44:42.184Z,71.43
2018-02-10T08:47:08.422Z,76.07
2018-02-10T08:49:34.624Z,70.43
2018-02-10T08:52:00.840Z,68.43
2018-02-10T08:54:27.030Z,75.80
2018-02-10T08:56:53.964Z,73.13
2018-02-10T08:59:20.180Z,82.47
2018-02-10T09:01:46.364Z,78.33
2018-02-10T09:04:12.632Z,68.93
2018-02-10T09:06:38.839Z,72.33
2018-02-10T09:09:05.043Z,67.77
2018-02-10T09:11:31.292Z,63.73
2018-02-10T09:13:57.543Z,81.83
2018-02-10T09:16:23.755Z,70.33
2018-02-10T09:18:49.966Z,63.00
2018-02-10T09:21:16.180Z,69.80
2018-02-10T09:23:43.115Z,73.67
2018-02-10T09:26:10.075Z,61.13
2018-02-10T09:28:37.068Z,63.77
2018-02-10T09:31:03.295Z,59.83
2018-02-10T09:33:29.483Z,60.03
2018-02-10T09:35:56.431Z,58.10
2018-02-10T09:38:22.628Z,55.30
2018-02-10T09:40:48.866Z,55.20
2018-02-10T09:43:22.801Z,56.90
2018-02-10T09:45:49.017Z,57.20
2018-02-10T09:48:16.004Z,64.80
2018-02-10T09:50:42.192Z,53.97
2018-02-10T09:53:09.179Z,55.93
2018-02-10T09:55:35.380Z,56.23
2018-02-10T09:58:01.588Z,62.00
2018-02-10T10:00:28.572Z,58.00
2018-02-10T10:02:54.895Z,59.90
2018-02-10T10:05:21.116Z,52.23
2018-02-10T10:07:47.295Z,51.93
2018-02-10T10:10:13.520Z,49.90
2018-02-10T10:12:39.707Z,49.70
2018-02-10T10:15:06.387Z,56.37
2018-02-10T10:17:32.585Z,53.43
2018-02-10T10:19:58.831Z,57.17
2018-02-10T10:22:25.055Z,55.00
2018-02-10T10:24:51.256Z,64.07
2018-02-10T10:27:17.544Z,51.57
2018-02-10T10:29:43.776Z,52.80
2018-02-10T10:32:09.964Z,53.43
2018-02-10T10:34:36.154Z,51.40
2018-02-10T10:37:03.113Z,58.13
2018-02-10T10:39:29.320Z,51.43
2018-02-10T10:41:56.342Z,52.20
2018-02-10T10:44:25.222Z,56.93
2018-02-10T10:46:52.489Z,58.13
2018-02-10T10:49:19.434Z,66.70
2018-02-10T10:51:46.585Z,41.60
2018-02-10T10:54:14.261Z,57.00
2018-02-10T10:56:41.294Z,34.27
2018-02-10T10:59:08.700Z,46.80
2018-02-10T11:01:36.210Z,46.67
2018-02-10T11:04:04.900Z,48.13
2018-02-10T11:06:32.664Z,43.47
2018-02-10T11:08:59.710Z,42.90
2018-02-10T11:11:27.047Z,47.00
2018-02-10T11:13:55.150Z,48.73
2018-02-10T11:16:25.055Z,45.10
2018-02-10T11:18:52.822Z,45.63
2018-02-10T11:21:20.484Z,44.37
2018-02-10T11:23:47.532Z,51.13
2018-02-10T11:26:13.776Z,41.80
2018-02-10T11:28:40.062Z,53.20
2018-02-10T11:31:06.263Z,43.27
2018-02-10T11:33:33.229Z,55.97
2018-02-10T11:35:59.416Z,43.53
2018-02-10T11:38:26.444Z,43.10
2018-02-10T11:40:53.493Z,40.23
2018-02-10T11:43:20.537Z,59.00
2018-02-10T11:45:48.511Z,49.80
2018-02-10T11:48:16.274Z,40.00
2018-02-10T11:50:44.345Z,42.80
2018-02-10T11:53:10.779Z,47.43
2018-02-10T11:55:40.489Z,45.50
2018-02-10T11:58:09.262Z,48.90
2018-02-10T12:00:37.148Z,46.33
2018-02-10T12:03:04.196Z,37.13
2018-02-10T12:05:34.215Z,31.50
2018-02-10T12:08:02.003Z,40.57
2018-02-10T12:10:29.557Z,39.17
2018-02-10T12:12:56.792Z,50.60
2018-02-10T12:15:24.024Z,43.13
2018-02-10T12:17:51.671Z,42.23
2018-02-10T12:20:18.654Z,56.13
2018-02-10T12:22:45.601Z,42.80
2018-02-10T12:25:12.854Z,53.37
2018-02-10T12:27:40.211Z,36.80
2018-02-10T12:30:08.195Z,38.23
2018-02-10T12:32:35.432Z,42.30
2018-02-10T12:35:02.480Z,39.53
2018-02-10T12:37:31.167Z,30.00
2018-02-10T12:39:58.116Z,49.23
2018-02-10T12:42:26.261Z,40.07
2018-02-10T12:44:53.651Z,40.13
2018-02-10T12:47:21.514Z,34.80
2018-02-10T12:49:49.379Z,43.73
2018-02-10T12:52:17.348Z,41.73
2018-02-10T12:54:45.829Z,49.13
2018-02-10T12:57:13.495Z,48.63
2018-02-10T12:59:41.361Z,44.47
2018-02-10T13:02:10.155Z,41.63
2018-02-10T13:04:37.200Z,49.77
2018-02-10T13:07:05.988Z,51.77
2018-02-10T13:09:33.129Z,54.03
2018-02-10T13:12:01.004Z,40.20
2018-02-10T13:14:28.258Z,55.10
2018-02-10T13:16:56.127Z,44.83
2018-02-10T13:19:23.992Z,37.23
2018-02-10T13:21:52.758Z,29.63
2018-02-10T13:24:19.730Z,36.87
2018-02-10T13:26:55.222Z,22.63
2018-02-10T13:29:22.019Z,46.03
2018-02-10T13:31:49.169Z,38.93
2018-02-10T13:34:17.655Z,45.80
2018-02-10T13:36:45.519Z,39.10
2018-02-10T13:39:12.978Z,66.60
2018-02-10T13:41:43.607Z,35.20
2018-02-10T13:44:12.192Z,58.13
2018-02-10T13:46:41.084Z,38.90
2018-02-10T13:49:08.187Z,52.30
2018-02-10T13:51:36.101Z,75.23
2018-02-10T13:54:04.074Z,65.40
2018-02-10T13:56:32.759Z,52.20
2018-02-10T13:59:00.129Z,48.53
2018-02-10T14:01:27.268Z,58.93
2018-02-10T14:03:53.723Z,55.87
2018-02-10T14:06:20.952Z,57.23
2018-02-10T14:08:48.924Z,51.03
2018-02-10T14:11:15.972Z,49.30
2018-02-10T14:13:43.831Z,47.20
2018-02-10T14:16:11.911Z,51.27
2018-02-10T14:18:39.060Z,58.53
2018-02-10T14:21:06.975Z,57.03
2018-02-10T14:23:34.899Z,83.40
2018-02-10T14:26:02.987Z,64.13
2018-02-10T14:28:30.946Z,67.67
2018-02-10T14:30:58.193Z,65.30
2018-02-10T14:33:26.164Z,53.20
2018-02-10T14:35:53.929Z,59.20
2018-02-10T14:38:22.639Z,72.90
2018-02-10T14:40:56.541Z,84.63
2018-02-10T14:43:30.470Z,56.83
2018-02-10T14:45:57.696Z,61.77
2018-02-10T14:48:24.841Z,52.60
2018-02-10T14:50:52.609Z,62.80
2018-02-10T14:53:21.729Z,58.07
2018-02-10T14:55:48.750Z,59.80
2018-02-10T14:58:15.796Z,49.20
2018-02-10T15:00:43.563Z,87.60
2018-02-10T15:03:09.881Z,82.37
2018-02-10T15:05:37.250Z,62.53
2018-02-10T15:08:05.052Z,59.80
2018-02-10T15:10:32.542Z,68.27
2018-02-10T15:13:00.647Z,57.33
2018-02-10T15:15:28.411Z,77.23
2018-02-10T15:17:55.360Z,68.63
2018-02-10T15:20:22.508Z,80.60
2018-02-10T15:22:50.274Z,59.00
2018-02-10T15:25:17.648Z,62.73
2018-02-10T15:27:45.091Z,75.50
2018-02-10T15:30:26.675Z,79.73
2018-02-10T15:33:06.933Z,79.50
2018-02-10T15:35:33.882Z,49.70
2018-02-10T15:38:01.751Z,56.50
2018-02-10T15:40:28.797Z,43.37
2018-02-10T15:42:55.848Z,80.27
2018-02-10T15:45:23.712Z,76.77
2018-02-10T15:47:50.762Z,50.40
2018-02-10T15:50:18.937Z,55.60
2018-02-10T15:52:45.783Z,45.07
2018-02-10T15:55:14.059Z,56.07
2018-02-10T15:57:41.211Z,55.17
2018-02-10T16:00:08.571Z,68.60
2018-02-10T16:02:36.535Z,79.33
2018-02-10T16:05:03.803Z,82.27
2018-02-10T16:07:31.859Z,74.33
2018-02-10T16:09:59.950Z,67.90
2018-02-10T16:12:26.877Z,90.30
2018-02-10T16:14:53.821Z,98.50
2018-02-10T16:17:20.658Z,84.73
2018-02-10T16:19:48.633Z,94.40
2018-02-10T16:22:15.483Z,97.23
2018-02-10T16:24:43.288Z,88.20
2018-02-10T16:27:09.568Z,77.53
2018-02-10T16:29:37.248Z,76.73
2018-02-10T16:32:04.313Z,92.53
2018-02-10T16:34:31.437Z,79.77
2018-02-10T16:36:58.383Z,73.67
2018-02-10T16:39:25.434Z,84.40
2018-02-10T16:41:52.481Z,109.70
2018-02-10T16:44:19.633Z,88.57
2018-02-10T16:46:47.783Z,81.87
2018-02-10T16:49:17.626Z,76.43
2018-02-10T16:51:46.205Z,82.17
2018-02-10T16:54:13.764Z,89.77
2018-02-10T16:56:40.914Z,83.10
2018-02-10T16:59:07.948Z,84.23
2018-02-10T17:01:35.014Z,117.93
2018-02-10T17:04:01.956Z,98.03
2018-02-10T17:06:29.929Z,92.57
2018-02-10T17:08:59.025Z,91.83
2018-02-10T17:11:26.687Z,77.10
2018-02-10T17:13:54.045Z,89.43
2018-02-10T17:16:21.296Z,63.77
2018-02-10T17:18:48.141Z,76.17
2018-02-10T17:21:15.188Z,75.07
2018-02-10T17:23:42.239Z,89.83
2018-02-10T17:26:10.005Z,90.37
2018-02-10T17:28:37.054Z,87.70
2018-02-10T17:31:04.199Z,68.80
2018-02-10T17:33:31.964Z,74.00
2018-02-10T17:36:00.143Z,88.60
2018-02-10T17:38:28.211Z,74.23
2018-02-10T17:40:56.387Z,95.70
2018-02-10T17:43:24.152Z,92.17
2018-02-10T17:45:51.918Z,77.77
2018-02-10T17:48:18.864Z,62.03
2018-02-10T17:50:45.914Z,84.87
2018-02-10T17:53:12.449Z,75.93
2018-02-10T17:55:39.460Z,63.07
2018-02-10T17:58:05.933Z,79.97
2018-02-10T18:00:33.027Z,79.57
2018-02-10T18:02:59.502Z,78.00
2018-02-10T18:05:25.725Z,69.53
2018-02-10T18:07:51.919Z,80.73
2018-02-10T18:10:18.932Z,74.33
2018-02-10T18:12:45.115Z,78.50
2018-02-10T18:15:11.336Z,64.93
2018-02-10T18:17:37.519Z,73.40
2018-02-10T18:20:03.741Z,62.70
2018-02-10T18:22:29.932Z,57.67
2018-02-10T18:24:56.156Z,90.53
2018-02-10T18:27:22.440Z,55.80
2018-02-10T18:29:48.745Z,67.40
2018-02-10T18:32:14.927Z,57.17
2018-02-10T18:34:41.120Z,48.67
2018-02-10T18:37:07.348Z,68.03
2018-02-10T18:39:35.064Z,50.70
2018-02-10T18:42:01.283Z,61.30
2018-02-10T18:44:27.467Z,57.77
2018-02-10T18:46:53.747Z,52.40
2018-02-10T18:49:20.176Z,49.23
2018-02-10T18:51:46.407Z,56.03
2018-02-10T18:54:12.592Z,68.27
2018-02-10T18:56:38.808Z,49.80
2018-02-10T18:59:04.993Z,59.23
2018-02-10T19:01:31.268Z,65.90
2018-02-10T19:03:57.457Z,68.53
2018-02-10T19:06:23.662Z,53.97
2018-02-10T19:08:49.955Z,52.70
2018-02-10T19:11:16.176Z,62.23
2018-02-10T19:13:42.390Z,56.47
2018-02-10T19:16:08.624Z,39.70
2018-02-10T19:18:34.836Z,59.50
2018-02-10T19:21:01.128Z,42.33
2018-02-10T19:23:27.343Z,44.50
2018-02-10T19:25:54.273Z,52.03
2018-02-10T19:28:20.500Z,47.03
2018-02-10T19:30:46.740Z,65.93
2018-02-10T19:33:12.960Z,69.77
2018-02-10T19:35:40.155Z,53.33
2018-02-10T19:38:07.112Z,64.47
2018-02-10T19:40:33.304Z,61.60
2018-02-10T19:42:59.523Z,37.23
2018-02-10T19:45:25.711Z,64.63
2018-02-10T19:47:51.971Z,88.07
2018-02-10T19:50:18.156Z,57.27
2018-02-10T19:52:44.347Z,58.47
2018-02-10T19:55:10.564Z,50.67
2018-02-10T19:57:36.748Z,59.30
2018-02-10T20:00:03.120Z,46.17
2018-02-10T20:02:30.348Z,37.87
2018-02-10T20:04:56.575Z,76.57
2018-02-10T20:07:22.760Z,65.43
2018-02-10T20:09:48.987Z,36.60
2018-02-10T20:12:15.176Z,43.77
2018-02-10T20:14:41.395Z,55.17
2018-02-10T20:17:07.587Z,74.43
2018-02-10T20:19:34.552Z,51.03
2018-02-10T20:22:00.807Z,73.27
2018-02-10T20:24:27.023Z,64.73
2018-02-10T20:26:53.216Z,52.30
2018-02-10T20:29:20.482Z,61.77
2018-02-10T20:31:46.704Z,88.20
2018-02-10T20:34:13.681Z,79.30
2018-02-10T20:36:40.216Z,65.97
2018-02-10T20:39:06.427Z,77.13
2018-02-10T20:41:32.616Z,62.70
2018-02-10T20:43:58.826Z,55.10
2018-02-10T20:46:25.044Z,60.37
2018-02-10T20:48:51.238Z,65.60
2018-02-10T20:51:17.452Z,84.37
2018-02-10T20:53:44.371Z,66.60
2018-02-10T20:56:10.584Z,75.37
2018-02-10T20:58:36.771Z,56.93
2018-02-10T21:01:02.996Z,49.00
2018-02-10T21:03:29.194Z,51.50
2018-02-10T21:05:55.414Z,84.17
2018-02-10T21:08:21.604Z,55.77
2018-02-10T21:10:48.168Z,83.60
2018-02-10T21:13:14.364Z,49.40
2018-02-10T21:15:40.548Z,64.93
2018-02-10T21:18:06.768Z,86.23
2018-02-10T21:20:32.960Z,70.20
2018-02-10T21:22:59.179Z,68.40
2018-02-10T21:25:25.428Z,82.23
2018-02-10T21:27:51.644Z,70.33
2018-02-10T21:30:17.864Z,87.80
2018-02-10T21:32:44.081Z,70.83
2018-02-10T21:35:10.300Z,80.10
2018-02-10T21:37:37.256Z,63.00
2018-02-10T21:40:03.445Z,71.23
2018-02-10T21:42:29.684Z,71.67
2018-02-10T21:44:55.877Z,66.47
2018-02-10T21:47:22.060Z,80.47
2018-02-10T21:49:49.066Z,68.40
2018-02-10T21:52:15.995Z,51.50
2018-02-10T21:54:42.204Z,75.23
2018-02-10T21:57:08.387Z,73.13
2018-02-10T21:59:34.666Z,54.13
2018-02-10T22:02:01.260Z,63.50
2018-02-10T22:04:27.535Z,59.10
2018-02-10T22:06:53.724Z,60.80
2018-02-10T22:09:20.688Z,51.20
2018-02-10T22:11:47.611Z,36.47
2018-02-10T22:14:14.571Z,53.73
2018-02-10T22:16:41.504Z,58.47
2018-02-10T22:19:07.723Z,42.73
2018-02-10T22:21:33.917Z,49.93
2018-02-10T22:24:00.135Z,70.87
2018-02-10T22:26:26.328Z,56.37
2018-02-10T22:28:53.288Z,61.07
2018-02-10T22:31:19.551Z,52.73
2018-02-10T22:33:45.779Z,43.27
2018-02-10T22:36:11.963Z,60.13
2018-02-10T22:38:38.939Z,47.90
2018-02-10T22:41:05.137Z,58.57
2018-02-10T22:43:32.092Z,61.13
2018-02-10T22:45:59.032Z,77.83
2018-02-10T22:48:25.983Z,49.13
2018-02-10T22:50:52.907Z,63.33
2018-02-10T22:53:20.604Z,61.73
2018-02-10T22:55:46.800Z,70.17
2018-02-10T22:58:13.012Z,59.70
2018-02-10T23:00:39.199Z,72.40
2018-02-10T23:03:05.412Z,69.90
2018-02-10T23:05:31.601Z,55.53
2018-02-10T23:07:58.039Z,66.10
2018-02-10T23:10:24.223Z,73.17
2018-02-10T23:12:50.441Z,73.03
2018-02-10T23:15:16.668Z,59.53
2018-02-10T23:17:42.883Z,62.70
2018-02-10T23:20:09.807Z,55.90
2018-02-10T23:22:36.000Z,55.80
2018-02-10T23:25:02.217Z,74.43
2018-02-10T23:27:28.408Z,34.00
2018-02-10T23:29:54.697Z,59.57
2018-02-10T23:32:20.875Z,73.30
2018-02-10T23:34:47.100Z,66.57
2018-02-10T23:37:13.323Z,51.57
2018-02-10T23:39:40.280Z,49.63
2018-02-10T23:42:06.557Z,53.60
2018-02-10T23:44:32.785Z,64.80
2018-02-10T23:46:58.987Z,54.10
2018-02-10T23:49:25.218Z,70.37
2018-02-10T23:51:51.474Z,60.73
2018-02-10T23:54:17.683Z,48.00
2018-02-10T23:56:43.905Z,60.63
2018-02-10T23:59:10.117Z,52.20
